sensor_id;sensor_type;location;lat;lon;timestamp;P1;durP1;ratioP1;P2;durP2;ratioP2
39128;SDS011;24864;49.940;19.770;2023-03-20T00:01:54;43.33;;;21.83;;
39128;SDS011;24864;49.940;19.770;2023-03-20T00:04:22;42.50;;;21.05;;
39128;SDS011;24864;49.940;19.770;2023-03-20T00:06:52;44.15;;;20.17;;
39128;SDS011;24864;49.940;19.770;2023-03-20T00:09:21;37.45;;;20.45;;
39128;SDS011;24864;49.940;19.770;2023-03-20T00:11:51;35.05;;;20.65;;
39128;SDS011;24864;49.940;19.770;2023-03-20T00:14:21;35.65;;;20.63;;
39128;SDS011;24864;49.940;19.770;2023-03-20T00:16:50;39.30;;;21.10;;
39128;SDS011;24864;49.940;19.770;2023-03-20T00:19:20;37.58;;;21.85;;
39128;SDS011;24864;49.940;19.770;2023-03-20T00:21:49;40.53;;;21.73;;
39128;SDS011;24864;49.940;19.770;2023-03-20T00:24:20;44.85;;;22.92;;
39128;SDS011;24864;49.940;19.770;2023-03-20T00:26:49;44.25;;;23.60;;
39128;SDS011;24864;49.940;19.770;2023-03-20T00:29:19;51.60;;;25.52;;
39128;SDS011;24864;49.940;19.770;2023-03-20T00:31:49;44.88;;;23.15;;
39128;SDS011;24864;49.940;19.770;2023-03-20T00:34:18;54.78;;;26.48;;
39128;SDS011;24864;49.940;19.770;2023-03-20T00:36:47;43.40;;;24.02;;
39128;SDS011;24864;49.940;19.770;2023-03-20T00:39:15;54.08;;;28.08;;
39128;SDS011;24864;49.940;19.770;2023-03-20T00:41:46;51.75;;;28.33;;
39128;SDS011;24864;49.940;19.770;2023-03-20T00:44:18;58.88;;;29.40;;
39128;SDS011;24864;49.940;19.770;2023-03-20T00:46:48;54.60;;;28.75;;
39128;SDS011;24864;49.940;19.770;2023-03-20T00:49:18;58.20;;;29.90;;
39128;SDS011;24864;49.940;19.770;2023-03-20T00:51:47;60.85;;;31.02;;
39128;SDS011;24864;49.940;19.770;2023-03-20T00:54:16;60.72;;;30.77;;
39128;SDS011;24864;49.940;19.770;2023-03-20T00:56:47;58.50;;;31.33;;
39128;SDS011;24864;49.940;19.770;2023-03-20T00:59:21;69.68;;;32.95;;
39128;SDS011;24864;49.940;19.770;2023-03-20T01:01:51;61.63;;;32.83;;
39128;SDS011;24864;49.940;19.770;2023-03-20T01:04:19;61.72;;;32.47;;
39128;SDS011;24864;49.940;19.770;2023-03-20T01:06:47;58.30;;;30.65;;
39128;SDS011;24864;49.940;19.770;2023-03-20T01:09:16;67.57;;;34.78;;
39128;SDS011;24864;49.940;19.770;2023-03-20T01:11:45;60.85;;;31.75;;
39128;SDS011;24864;49.940;19.770;2023-03-20T01:14:14;56.78;;;27.88;;
39128;SDS011;24864;49.940;19.770;2023-03-20T01:16:43;55.50;;;26.02;;
39128;SDS011;24864;49.940;19.770;2023-03-20T01:19:12;45.03;;;23.40;;
39128;SDS011;24864;49.940;19.770;2023-03-20T01:21:42;37.13;;;19.50;;
39128;SDS011;24864;49.940;19.770;2023-03-20T01:24:10;28.65;;;16.00;;
39128;SDS011;24864;49.940;19.770;2023-03-20T01:26:39;30.45;;;18.48;;
39128;SDS011;24864;49.940;19.770;2023-03-20T01:29:14;40.30;;;20.10;;
39128;SDS011;24864;49.940;19.770;2023-03-20T01:31:44;34.38;;;17.15;;
39128;SDS011;24864;49.940;19.770;2023-03-20T01:34:13;36.88;;;20.45;;
39128;SDS011;24864;49.940;19.770;2023-03-20T01:36:42;30.08;;;17.00;;
39128;SDS011;24864;49.940;19.770;2023-03-20T01:39:11;25.75;;;14.13;;
39128;SDS011;24864;49.940;19.770;2023-03-20T01:41:39;32.25;;;15.50;;
39128;SDS011;24864;49.940;19.770;2023-03-20T01:44:15;27.48;;;15.70;;
39128;SDS011;24864;49.940;19.770;2023-03-20T01:46:45;27.67;;;14.88;;
39128;SDS011;24864;49.940;19.770;2023-03-20T01:52:19;26.73;;;14.23;;
39128;SDS011;24864;49.940;19.770;2023-03-20T01:54:47;25.10;;;14.80;;
39128;SDS011;24864;49.940;19.770;2023-03-20T01:57:18;24.75;;;14.65;;
39128;SDS011;24864;49.940;19.770;2023-03-20T01:59:50;29.25;;;15.43;;
39128;SDS011;24864;49.940;19.770;2023-03-20T02:02:20;31.88;;;15.55;;
39128;SDS011;24864;49.940;19.770;2023-03-20T02:04:51;27.40;;;15.70;;
39128;SDS011;24864;49.940;19.770;2023-03-20T02:07:22;20.27;;;12.35;;
39128;SDS011;24864;49.940;19.770;2023-03-20T02:09:51;21.92;;;12.50;;
39128;SDS011;24864;49.940;19.770;2023-03-20T02:12:20;19.60;;;10.82;;
39128;SDS011;24864;49.940;19.770;2023-03-20T02:14:50;20.73;;;11.95;;
39128;SDS011;24864;49.940;19.770;2023-03-20T02:17:18;18.02;;;10.93;;
39128;SDS011;24864;49.940;19.770;2023-03-20T02:19:49;22.25;;;11.77;;
39128;SDS011;24864;49.940;19.770;2023-03-20T02:31:08;22.55;;;11.70;;
39128;SDS011;24864;49.940;19.770;2023-03-20T02:33:52;25.42;;;13.02;;
39128;SDS011;24864;49.940;19.770;2023-03-20T02:36:34;23.92;;;12.73;;
39128;SDS011;24864;49.940;19.770;2023-03-20T02:39:21;16.10;;;11.45;;
39128;SDS011;24864;49.940;19.770;2023-03-20T02:41:55;20.98;;;12.68;;
39128;SDS011;24864;49.940;19.770;2023-03-20T02:44:29;26.33;;;13.70;;
39128;SDS011;24864;49.940;19.770;2023-03-20T02:47:01;24.55;;;13.18;;
39128;SDS011;24864;49.940;19.770;2023-03-20T02:49:34;22.75;;;13.15;;
39128;SDS011;24864;49.940;19.770;2023-03-20T02:52:14;26.38;;;14.55;;
39128;SDS011;24864;49.940;19.770;2023-03-20T02:54:48;21.65;;;12.73;;
39128;SDS011;24864;49.940;19.770;2023-03-20T02:57:22;22.92;;;12.88;;
39128;SDS011;24864;49.940;19.770;2023-03-20T02:59:55;22.52;;;12.07;;
39128;SDS011;24864;49.940;19.770;2023-03-20T03:02:27;24.20;;;12.17;;
39128;SDS011;24864;49.940;19.770;2023-03-20T03:05:00;22.77;;;12.50;;
39128;SDS011;24864;49.940;19.770;2023-03-20T03:07:31;26.13;;;12.77;;
39128;SDS011;24864;49.940;19.770;2023-03-20T03:10:02;23.38;;;12.63;;
39128;SDS011;24864;49.940;19.770;2023-03-20T03:15:01;20.58;;;12.40;;
39128;SDS011;24864;49.940;19.770;2023-03-20T03:17:32;19.05;;;11.93;;
39128;SDS011;24864;49.940;19.770;2023-03-20T03:20:02;19.58;;;12.27;;
39128;SDS011;24864;49.940;19.770;2023-03-20T03:22:34;19.67;;;11.38;;
39128;SDS011;24864;49.940;19.770;2023-03-20T03:25:04;22.63;;;12.43;;
39128;SDS011;24864;49.940;19.770;2023-03-20T03:27:34;22.08;;;12.35;;
39128;SDS011;24864;49.940;19.770;2023-03-20T03:30:05;20.73;;;11.82;;
39128;SDS011;24864;49.940;19.770;2023-03-20T03:32:39;22.67;;;12.15;;
39128;SDS011;24864;49.940;19.770;2023-03-20T03:35:13;16.95;;;11.57;;
39128;SDS011;24864;49.940;19.770;2023-03-20T03:37:46;22.65;;;13.88;;
39128;SDS011;24864;49.940;19.770;2023-03-20T03:40:19;20.98;;;11.68;;
39128;SDS011;24864;49.940;19.770;2023-03-20T03:42:58;23.88;;;12.50;;
39128;SDS011;24864;49.940;19.770;2023-03-20T03:45:29;25.08;;;12.23;;
39128;SDS011;24864;49.940;19.770;2023-03-20T03:50:30;17.20;;;11.20;;
39128;SDS011;24864;49.940;19.770;2023-03-20T03:53:03;18.13;;;11.70;;
39128;SDS011;24864;49.940;19.770;2023-03-20T03:55:37;21.30;;;11.23;;
39128;SDS011;24864;49.940;19.770;2023-03-20T03:58:07;18.55;;;11.50;;
39128;SDS011;24864;49.940;19.770;2023-03-20T04:00:38;29.42;;;12.27;;
39128;SDS011;24864;49.940;19.770;2023-03-20T04:03:08;17.63;;;11.52;;
39128;SDS011;24864;49.940;19.770;2023-03-20T04:05:36;21.88;;;11.82;;
39128;SDS011;24864;49.940;19.770;2023-03-20T04:08:07;23.00;;;11.10;;
39128;SDS011;24864;49.940;19.770;2023-03-20T04:10:37;17.75;;;11.13;;
39128;SDS011;24864;49.940;19.770;2023-03-20T04:13:05;20.00;;;11.77;;
39128;SDS011;24864;49.940;19.770;2023-03-20T04:15:33;18.92;;;10.85;;
39128;SDS011;24864;49.940;19.770;2023-03-20T04:18:02;20.15;;;11.88;;
39128;SDS011;24864;49.940;19.770;2023-03-20T04:20:31;24.83;;;12.07;;
39128;SDS011;24864;49.940;19.770;2023-03-20T04:22:59;24.48;;;12.80;;
39128;SDS011;24864;49.940;19.770;2023-03-20T04:25:27;20.67;;;11.60;;
39128;SDS011;24864;49.940;19.770;2023-03-20T04:27:57;21.25;;;11.75;;
39128;SDS011;24864;49.940;19.770;2023-03-20T04:30:25;17.73;;;11.45;;
39128;SDS011;24864;49.940;19.770;2023-03-20T04:32:53;21.15;;;11.00;;
39128;SDS011;24864;49.940;19.770;2023-03-20T04:35:21;18.70;;;12.10;;
39128;SDS011;24864;49.940;19.770;2023-03-20T04:37:49;20.33;;;11.75;;
39128;SDS011;24864;49.940;19.770;2023-03-20T04:40:18;18.95;;;11.50;;
39128;SDS011;24864;49.940;19.770;2023-03-20T04:42:46;18.27;;;10.32;;
39128;SDS011;24864;49.940;19.770;2023-03-20T04:45:15;22.08;;;11.95;;
39128;SDS011;24864;49.940;19.770;2023-03-20T04:47:44;19.40;;;11.50;;
39128;SDS011;24864;49.940;19.770;2023-03-20T04:50:12;18.45;;;11.10;;
39128;SDS011;24864;49.940;19.770;2023-03-20T04:52:40;21.50;;;11.32;;
39128;SDS011;24864;49.940;19.770;2023-03-20T04:55:08;19.05;;;10.52;;
39128;SDS011;24864;49.940;19.770;2023-03-20T04:57:36;20.75;;;10.93;;
39128;SDS011;24864;49.940;19.770;2023-03-20T05:00:05;20.77;;;11.60;;
39128;SDS011;24864;49.940;19.770;2023-03-20T05:02:35;23.98;;;11.82;;
39128;SDS011;24864;49.940;19.770;2023-03-20T05:05:04;20.42;;;10.98;;
39128;SDS011;24864;49.940;19.770;2023-03-20T05:07:32;15.35;;;10.43;;
39128;SDS011;24864;49.940;19.770;2023-03-20T05:10:01;20.80;;;11.32;;
39128;SDS011;24864;49.940;19.770;2023-03-20T05:12:30;22.50;;;11.10;;
39128;SDS011;24864;49.940;19.770;2023-03-20T05:14:58;19.73;;;11.70;;
39128;SDS011;24864;49.940;19.770;2023-03-20T05:17:26;22.98;;;12.63;;
39128;SDS011;24864;49.940;19.770;2023-03-20T05:19:56;23.13;;;12.52;;
39128;SDS011;24864;49.940;19.770;2023-03-20T05:22:25;24.10;;;12.90;;
39128;SDS011;24864;49.940;19.770;2023-03-20T05:24:53;24.13;;;12.95;;
39128;SDS011;24864;49.940;19.770;2023-03-20T05:27:21;23.83;;;14.50;;
39128;SDS011;24864;49.940;19.770;2023-03-20T05:29:49;28.73;;;15.70;;
39128;SDS011;24864;49.940;19.770;2023-03-20T05:32:17;26.30;;;14.90;;
39128;SDS011;24864;49.940;19.770;2023-03-20T05:34:45;23.98;;;14.80;;
39128;SDS011;24864;49.940;19.770;2023-03-20T05:37:15;26.60;;;15.65;;
39128;SDS011;24864;49.940;19.770;2023-03-20T05:39:43;29.88;;;14.93;;
39128;SDS011;24864;49.940;19.770;2023-03-20T05:42:11;24.98;;;14.05;;
39128;SDS011;24864;49.940;19.770;2023-03-20T05:44:39;21.17;;;13.07;;
39128;SDS011;24864;49.940;19.770;2023-03-20T05:47:08;24.20;;;14.45;;
39128;SDS011;24864;49.940;19.770;2023-03-20T05:49:36;23.67;;;14.82;;
39128;SDS011;24864;49.940;19.770;2023-03-20T05:52:05;26.15;;;16.70;;
39128;SDS011;24864;49.940;19.770;2023-03-20T05:54:34;19.52;;;13.18;;
39128;SDS011;24864;49.940;19.770;2023-03-20T05:57:02;25.83;;;13.20;;
39128;SDS011;24864;49.940;19.770;2023-03-20T05:59:30;27.52;;;13.98;;
39128;SDS011;24864;49.940;19.770;2023-03-20T06:01:59;21.58;;;13.52;;
39128;SDS011;24864;49.940;19.770;2023-03-20T06:04:27;23.70;;;13.35;;
39128;SDS011;24864;49.940;19.770;2023-03-20T06:06:56;30.58;;;16.80;;
39128;SDS011;24864;49.940;19.770;2023-03-20T06:09:24;30.48;;;17.33;;
39128;SDS011;24864;49.940;19.770;2023-03-20T06:11:53;34.40;;;19.77;;
39128;SDS011;24864;49.940;19.770;2023-03-20T06:14:22;39.67;;;22.92;;
39128;SDS011;24864;49.940;19.770;2023-03-20T06:16:50;48.17;;;25.58;;
39128;SDS011;24864;49.940;19.770;2023-03-20T06:19:19;45.53;;;24.40;;
39128;SDS011;24864;49.940;19.770;2023-03-20T06:21:48;46.67;;;26.95;;
39128;SDS011;24864;49.940;19.770;2023-03-20T06:24:16;48.65;;;27.50;;
39128;SDS011;24864;49.940;19.770;2023-03-20T06:26:45;61.15;;;31.90;;
39128;SDS011;24864;49.940;19.770;2023-03-20T06:29:14;62.88;;;33.53;;
39128;SDS011;24864;49.940;19.770;2023-03-20T06:31:42;67.22;;;35.85;;
39128;SDS011;24864;49.940;19.770;2023-03-20T06:34:10;70.25;;;37.45;;
39128;SDS011;24864;49.940;19.770;2023-03-20T06:36:39;62.83;;;34.03;;
39128;SDS011;24864;49.940;19.770;2023-03-20T06:39:10;62.95;;;35.75;;
39128;SDS011;24864;49.940;19.770;2023-03-20T06:41:38;67.72;;;33.83;;
39128;SDS011;24864;49.940;19.770;2023-03-20T06:44:06;73.10;;;35.00;;
39128;SDS011;24864;49.940;19.770;2023-03-20T06:46:36;62.38;;;34.63;;
39128;SDS011;24864;49.940;19.770;2023-03-20T06:49:04;64.05;;;34.33;;
39128;SDS011;24864;49.940;19.770;2023-03-20T06:51:32;62.40;;;32.95;;
39128;SDS011;24864;49.940;19.770;2023-03-20T06:54:01;51.72;;;31.15;;
39128;SDS011;24864;49.940;19.770;2023-03-20T06:56:29;54.72;;;28.83;;
39128;SDS011;24864;49.940;19.770;2023-03-20T06:58:57;42.78;;;25.73;;
39128;SDS011;24864;49.940;19.770;2023-03-20T07:01:25;58.03;;;30.25;;
39128;SDS011;24864;49.940;19.770;2023-03-20T07:03:55;56.17;;;28.13;;
39128;SDS011;24864;49.940;19.770;2023-03-20T07:06:23;48.67;;;26.42;;
39128;SDS011;24864;49.940;19.770;2023-03-20T07:08:52;42.58;;;23.77;;
39128;SDS011;24864;49.940;19.770;2023-03-20T07:11:20;42.90;;;22.17;;
39128;SDS011;24864;49.940;19.770;2023-03-20T07:13:48;46.67;;;25.38;;
39128;SDS011;24864;49.940;19.770;2023-03-20T07:16:17;37.38;;;23.33;;
39128;SDS011;24864;49.940;19.770;2023-03-20T07:18:45;34.53;;;21.27;;
39128;SDS011;24864;49.940;19.770;2023-03-20T07:21:16;37.35;;;20.23;;
39128;SDS011;24864;49.940;19.770;2023-03-20T07:23:47;32.92;;;18.67;;
39128;SDS011;24864;49.940;19.770;2023-03-20T07:26:15;32.00;;;19.20;;
39128;SDS011;24864;49.940;19.770;2023-03-20T07:28:43;33.78;;;18.33;;
39128;SDS011;24864;49.940;19.770;2023-03-20T07:33:46;29.65;;;18.05;;
39128;SDS011;24864;49.940;19.770;2023-03-20T07:36:15;29.85;;;18.73;;
39128;SDS011;24864;49.940;19.770;2023-03-20T07:38:43;34.05;;;18.65;;
39128;SDS011;24864;49.940;19.770;2023-03-20T07:41:12;31.40;;;19.70;;
39128;SDS011;24864;49.940;19.770;2023-03-20T07:43:40;32.80;;;18.52;;
39128;SDS011;24864;49.940;19.770;2023-03-20T07:46:10;28.27;;;18.30;;
39128;SDS011;24864;49.940;19.770;2023-03-20T07:48:38;29.23;;;18.52;;
39128;SDS011;24864;49.940;19.770;2023-03-20T07:51:06;34.90;;;20.50;;
39128;SDS011;24864;49.940;19.770;2023-03-20T07:53:36;31.35;;;19.08;;
39128;SDS011;24864;49.940;19.770;2023-03-20T07:56:04;25.65;;;17.23;;
39128;SDS011;24864;49.940;19.770;2023-03-20T07:58:33;22.85;;;15.60;;
39128;SDS011;24864;49.940;19.770;2023-03-20T08:01:01;21.70;;;15.10;;
39128;SDS011;24864;49.940;19.770;2023-03-20T08:03:30;20.67;;;13.80;;
39128;SDS011;24864;49.940;19.770;2023-03-20T08:05:58;30.45;;;15.02;;
39128;SDS011;24864;49.940;19.770;2023-03-20T08:08:27;23.38;;;15.15;;
39128;SDS011;24864;49.940;19.770;2023-03-20T08:10:56;24.92;;;14.52;;
39128;SDS011;24864;49.940;19.770;2023-03-20T08:13:24;27.92;;;15.75;;
39128;SDS011;24864;49.940;19.770;2023-03-20T08:15:53;27.60;;;17.08;;
39128;SDS011;24864;49.940;19.770;2023-03-20T08:18:21;32.17;;;17.67;;
39128;SDS011;24864;49.940;19.770;2023-03-20T08:20:49;28.10;;;17.42;;
39128;SDS011;24864;49.940;19.770;2023-03-20T08:23:17;28.45;;;18.40;;
39128;SDS011;24864;49.940;19.770;2023-03-20T08:25:47;31.05;;;18.15;;
39128;SDS011;24864;49.940;19.770;2023-03-20T08:28:16;31.92;;;18.83;;
39128;SDS011;24864;49.940;19.770;2023-03-20T08:30:45;32.83;;;19.27;;
39128;SDS011;24864;49.940;19.770;2023-03-20T08:33:13;30.48;;;18.48;;
39128;SDS011;24864;49.940;19.770;2023-03-20T08:35:43;29.33;;;19.13;;
39128;SDS011;24864;49.940;19.770;2023-03-20T08:38:12;31.23;;;17.85;;
39128;SDS011;24864;49.940;19.770;2023-03-20T08:40:40;28.48;;;18.00;;
39128;SDS011;24864;49.940;19.770;2023-03-20T08:43:08;26.20;;;18.60;;
39128;SDS011;24864;49.940;19.770;2023-03-20T08:45:38;33.75;;;19.48;;
39128;SDS011;24864;49.940;19.770;2023-03-20T08:48:06;37.38;;;20.15;;
39128;SDS011;24864;49.940;19.770;2023-03-20T08:50:34;30.27;;;19.75;;
39128;SDS011;24864;49.940;19.770;2023-03-20T08:53:03;29.88;;;18.15;;
39128;SDS011;24864;49.940;19.770;2023-03-20T08:55:31;32.63;;;19.58;;
39128;SDS011;24864;49.940;19.770;2023-03-20T08:58:00;31.23;;;19.10;;
39128;SDS011;24864;49.940;19.770;2023-03-20T09:00:29;36.67;;;19.65;;
39128;SDS011;24864;49.940;19.770;2023-03-20T09:02:58;32.45;;;19.13;;
39128;SDS011;24864;49.940;19.770;2023-03-20T09:05:27;31.50;;;19.88;;
39128;SDS011;24864;49.940;19.770;2023-03-20T09:07:55;29.40;;;19.10;;
39128;SDS011;24864;49.940;19.770;2023-03-20T09:10:23;31.60;;;19.08;;
39128;SDS011;24864;49.940;19.770;2023-03-20T09:12:51;28.52;;;17.38;;
39128;SDS011;24864;49.940;19.770;2023-03-20T09:15:19;33.38;;;16.35;;
39128;SDS011;24864;49.940;19.770;2023-03-20T09:17:47;27.90;;;18.08;;
39128;SDS011;24864;49.940;19.770;2023-03-20T09:20:17;33.75;;;20.63;;
39128;SDS011;24864;49.940;19.770;2023-03-20T09:22:45;35.00;;;19.55;;
39128;SDS011;24864;49.940;19.770;2023-03-20T09:25:14;32.28;;;20.38;;
39128;SDS011;24864;49.940;19.770;2023-03-20T09:27:42;29.33;;;20.10;;
39128;SDS011;24864;49.940;19.770;2023-03-20T09:30:10;26.33;;;17.50;;
39128;SDS011;24864;49.940;19.770;2023-03-20T09:32:39;37.10;;;19.02;;
39128;SDS011;24864;49.940;19.770;2023-03-20T09:35:08;31.63;;;19.75;;
39128;SDS011;24864;49.940;19.770;2023-03-20T09:37:37;32.75;;;20.25;;
39128;SDS011;24864;49.940;19.770;2023-03-20T09:40:06;35.05;;;20.50;;
39128;SDS011;24864;49.940;19.770;2023-03-20T09:42:38;34.33;;;21.70;;
39128;SDS011;24864;49.940;19.770;2023-03-20T09:45:13;34.08;;;20.52;;
39128;SDS011;24864;49.940;19.770;2023-03-20T09:47:46;26.45;;;18.92;;
39128;SDS011;24864;49.940;19.770;2023-03-20T09:50:21;29.48;;;19.95;;
39128;SDS011;24864;49.940;19.770;2023-03-20T09:52:56;37.78;;;22.30;;
39128;SDS011;24864;49.940;19.770;2023-03-20T09:55:28;34.90;;;20.67;;
39128;SDS011;24864;49.940;19.770;2023-03-20T09:58:02;36.08;;;22.13;;
39128;SDS011;24864;49.940;19.770;2023-03-20T10:00:34;33.15;;;22.98;;
39128;SDS011;24864;49.940;19.770;2023-03-20T10:03:03;37.50;;;23.35;;
39128;SDS011;24864;49.940;19.770;2023-03-20T10:05:34;36.13;;;22.60;;
39128;SDS011;24864;49.940;19.770;2023-03-20T10:08:10;38.65;;;25.13;;
39128;SDS011;24864;49.940;19.770;2023-03-20T10:10:45;35.50;;;23.33;;
39128;SDS011;24864;49.940;19.770;2023-03-20T10:13:34;38.72;;;23.33;;
39128;SDS011;24864;49.940;19.770;2023-03-20T10:16:16;36.30;;;24.63;;
39128;SDS011;24864;49.940;19.770;2023-03-20T10:18:50;35.35;;;23.20;;
39128;SDS011;24864;49.940;19.770;2023-03-20T10:21:25;31.33;;;21.55;;
39128;SDS011;24864;49.940;19.770;2023-03-20T10:23:59;32.85;;;21.27;;
39128;SDS011;24864;49.940;19.770;2023-03-20T10:26:30;34.70;;;21.20;;
39128;SDS011;24864;49.940;19.770;2023-03-20T10:29:02;30.13;;;19.55;;
39128;SDS011;24864;49.940;19.770;2023-03-20T10:34:08;31.73;;;19.97;;
39128;SDS011;24864;49.940;19.770;2023-03-20T10:36:51;31.00;;;20.88;;
39128;SDS011;24864;49.940;19.770;2023-03-20T10:39:28;35.92;;;21.85;;
39128;SDS011;24864;49.940;19.770;2023-03-20T10:42:09;35.78;;;23.25;;
39128;SDS011;24864;49.940;19.770;2023-03-20T10:44:42;39.70;;;22.40;;
39128;SDS011;24864;49.940;19.770;2023-03-20T10:47:15;36.40;;;22.38;;
39128;SDS011;24864;49.940;19.770;2023-03-20T10:49:46;39.07;;;23.73;;
39128;SDS011;24864;49.940;19.770;2023-03-20T10:52:18;30.10;;;20.40;;
39128;SDS011;24864;49.940;19.770;2023-03-20T10:54:51;28.20;;;21.13;;
39128;SDS011;24864;49.940;19.770;2023-03-20T10:57:22;37.25;;;22.02;;
39128;SDS011;24864;49.940;19.770;2023-03-20T10:59:53;29.67;;;19.38;;
39128;SDS011;24864;49.940;19.770;2023-03-20T11:02:26;31.48;;;20.90;;
39128;SDS011;24864;49.940;19.770;2023-03-20T11:07:24;30.15;;;21.00;;
39128;SDS011;24864;49.940;19.770;2023-03-20T11:10:08;35.95;;;20.80;;
39128;SDS011;24864;49.940;19.770;2023-03-20T11:12:40;31.60;;;20.88;;
39128;SDS011;24864;49.940;19.770;2023-03-20T11:15:19;32.45;;;20.35;;
39128;SDS011;24864;49.940;19.770;2023-03-20T11:17:53;23.15;;;17.48;;
39128;SDS011;24864;49.940;19.770;2023-03-20T11:20:23;31.92;;;20.48;;
39128;SDS011;24864;49.940;19.770;2023-03-20T11:22:56;28.20;;;19.70;;
39128;SDS011;24864;49.940;19.770;2023-03-20T11:25:29;34.15;;;21.48;;
39128;SDS011;24864;49.940;19.770;2023-03-20T11:30:46;27.85;;;19.75;;
39128;SDS011;24864;49.940;19.770;2023-03-20T11:33:31;24.58;;;19.55;;
39128;SDS011;24864;49.940;19.770;2023-03-20T11:36:08;32.80;;;21.83;;
39128;SDS011;24864;49.940;19.770;2023-03-20T11:38:42;28.08;;;20.25;;
39128;SDS011;24864;49.940;19.770;2023-03-20T11:41:17;34.22;;;21.55;;
39128;SDS011;24864;49.940;19.770;2023-03-20T11:43:46;36.58;;;23.17;;
39128;SDS011;24864;49.940;19.770;2023-03-20T11:46:14;34.17;;;22.85;;
39128;SDS011;24864;49.940;19.770;2023-03-20T11:48:44;33.75;;;23.80;;
39128;SDS011;24864;49.940;19.770;2023-03-20T11:51:32;38.90;;;23.25;;
39128;SDS011;24864;49.940;19.770;2023-03-20T11:54:02;34.95;;;24.08;;
39128;SDS011;24864;49.940;19.770;2023-03-20T11:56:33;39.15;;;23.33;;
39128;SDS011;24864;49.940;19.770;2023-03-20T11:59:02;35.78;;;23.85;;
39128;SDS011;24864;49.940;19.770;2023-03-20T12:01:41;34.40;;;23.45;;
39128;SDS011;24864;49.940;19.770;2023-03-20T12:04:14;34.28;;;21.30;;
39128;SDS011;24864;49.940;19.770;2023-03-20T12:06:44;35.15;;;21.25;;
39128;SDS011;24864;49.940;19.770;2023-03-20T12:09:22;41.87;;;26.03;;
39128;SDS011;24864;49.940;19.770;2023-03-20T12:11:56;33.42;;;22.77;;
39128;SDS011;24864;49.940;19.770;2023-03-20T12:14:30;34.78;;;23.30;;
39128;SDS011;24864;49.940;19.770;2023-03-20T12:17:07;32.28;;;21.80;;
39128;SDS011;24864;49.940;19.770;2023-03-20T12:20:01;39.13;;;22.52;;
39128;SDS011;24864;49.940;19.770;2023-03-20T12:22:34;42.90;;;24.55;;
39128;SDS011;24864;49.940;19.770;2023-03-20T12:25:09;38.58;;;23.98;;
39128;SDS011;24864;49.940;19.770;2023-03-20T12:27:44;34.40;;;24.13;;
39128;SDS011;24864;49.940;19.770;2023-03-20T12:30:18;34.70;;;22.38;;
39128;SDS011;24864;49.940;19.770;2023-03-20T12:32:52;36.28;;;23.70;;
39128;SDS011;24864;49.940;19.770;2023-03-20T12:35:26;42.03;;;23.73;;
39128;SDS011;24864;49.940;19.770;2023-03-20T12:37:55;35.78;;;23.63;;
39128;SDS011;24864;49.940;19.770;2023-03-20T12:40:26;39.95;;;25.27;;
39128;SDS011;24864;49.940;19.770;2023-03-20T12:43:03;41.10;;;25.27;;
39128;SDS011;24864;49.940;19.770;2023-03-20T12:45:32;39.15;;;24.95;;
39128;SDS011;24864;49.940;19.770;2023-03-20T12:48:08;35.83;;;24.30;;
39128;SDS011;24864;49.940;19.770;2023-03-20T12:50:46;29.73;;;21.65;;
39128;SDS011;24864;49.940;19.770;2023-03-20T12:53:25;35.00;;;21.58;;
39128;SDS011;24864;49.940;19.770;2023-03-20T12:56:10;33.22;;;22.70;;
39128;SDS011;24864;49.940;19.770;2023-03-20T12:58:46;36.85;;;23.58;;
39128;SDS011;24864;49.940;19.770;2023-03-20T13:01:17;33.50;;;21.88;;
39128;SDS011;24864;49.940;19.770;2023-03-20T13:03:53;33.97;;;22.55;;
39128;SDS011;24864;49.940;19.770;2023-03-20T13:06:30;33.03;;;22.67;;
39128;SDS011;24864;49.940;19.770;2023-03-20T13:09:12;39.70;;;23.67;;
39128;SDS011;24864;49.940;19.770;2023-03-20T13:12:04;34.22;;;22.60;;
39128;SDS011;24864;49.940;19.770;2023-03-20T13:14:38;36.88;;;22.98;;
39128;SDS011;24864;49.940;19.770;2023-03-20T13:17:11;39.30;;;24.45;;
39128;SDS011;24864;49.940;19.770;2023-03-20T13:19:45;34.47;;;22.13;;
39128;SDS011;24864;49.940;19.770;2023-03-20T13:22:21;39.17;;;21.67;;
39128;SDS011;24864;49.940;19.770;2023-03-20T13:24:59;28.55;;;18.55;;
39128;SDS011;24864;49.940;19.770;2023-03-20T13:27:32;20.13;;;16.25;;
39128;SDS011;24864;49.940;19.770;2023-03-20T13:30:06;26.40;;;18.08;;
39128;SDS011;24864;49.940;19.770;2023-03-20T13:32:44;20.17;;;15.40;;
39128;SDS011;24864;49.940;19.770;2023-03-20T13:35:20;21.73;;;15.65;;
39128;SDS011;24864;49.940;19.770;2023-03-20T13:37:55;26.70;;;18.10;;
39128;SDS011;24864;49.940;19.770;2023-03-20T13:40:25;32.90;;;19.00;;
39128;SDS011;24864;49.940;19.770;2023-03-20T13:42:56;30.73;;;19.50;;
39128;SDS011;24864;49.940;19.770;2023-03-20T13:45:29;29.17;;;20.30;;
39128;SDS011;24864;49.940;19.770;2023-03-20T13:48:02;31.58;;;21.33;;
39128;SDS011;24864;49.940;19.770;2023-03-20T13:50:38;30.70;;;18.83;;
39128;SDS011;24864;49.940;19.770;2023-03-20T13:53:12;34.40;;;20.83;;
39128;SDS011;24864;49.940;19.770;2023-03-20T13:55:47;29.95;;;19.30;;
39128;SDS011;24864;49.940;19.770;2023-03-20T13:58:30;31.50;;;20.05;;
39128;SDS011;24864;49.940;19.770;2023-03-20T14:01:10;28.35;;;20.20;;
39128;SDS011;24864;49.940;19.770;2023-03-20T14:03:44;29.95;;;19.33;;
39128;SDS011;24864;49.940;19.770;2023-03-20T14:06:43;31.13;;;19.80;;
39128;SDS011;24864;49.940;19.770;2023-03-20T14:09:23;24.05;;;18.73;;
39128;SDS011;24864;49.940;19.770;2023-03-20T14:12:04;30.40;;;18.60;;
39128;SDS011;24864;49.940;19.770;2023-03-20T14:14:38;30.00;;;19.35;;
39128;SDS011;24864;49.940;19.770;2023-03-20T14:17:13;25.23;;;16.55;;
39128;SDS011;24864;49.940;19.770;2023-03-20T14:19:43;21.02;;;15.77;;
39128;SDS011;24864;49.940;19.770;2023-03-20T14:22:16;23.48;;;16.10;;
39128;SDS011;24864;49.940;19.770;2023-03-20T14:24:49;25.20;;;16.77;;
39128;SDS011;24864;49.940;19.770;2023-03-20T14:27:21;23.73;;;17.25;;
39128;SDS011;24864;49.940;19.770;2023-03-20T14:33:24;26.60;;;16.23;;
39128;SDS011;24864;49.940;19.770;2023-03-20T14:38:58;20.77;;;15.65;;
39128;SDS011;24864;49.940;19.770;2023-03-20T14:41:36;27.08;;;17.73;;
39128;SDS011;24864;49.940;19.770;2023-03-20T14:44:17;25.10;;;16.95;;
39128;SDS011;24864;49.940;19.770;2023-03-20T14:46:53;31.23;;;17.60;;
39128;SDS011;24864;49.940;19.770;2023-03-20T14:49:29;26.65;;;16.80;;
39128;SDS011;24864;49.940;19.770;2023-03-20T14:52:08;31.45;;;19.30;;
39128;SDS011;24864;49.940;19.770;2023-03-20T14:54:50;33.90;;;19.27;;
39128;SDS011;24864;49.940;19.770;2023-03-20T14:57:25;23.73;;;17.48;;
39128;SDS011;24864;49.940;19.770;2023-03-20T15:00:14;28.75;;;18.85;;
39128;SDS011;24864;49.940;19.770;2023-03-20T15:02:45;28.27;;;19.55;;
39128;SDS011;24864;49.940;19.770;2023-03-20T15:05:24;27.75;;;19.58;;
39128;SDS011;24864;49.940;19.770;2023-03-20T15:07:55;32.17;;;20.35;;